Time;durP1;ratioP1;P1;durP2;ratioP2;P2;SDS_P1;SDS_P2;PMS_P1;PMS_P2;Temp;Humidity;BMP_temperature;BMP_pressure;BME280_temperature;BME280_humidity;BME280_pressure;Samples;Min_cycle;Max_cycle;Signal;HPM_P1;HPM_P2
2021/11/17 02:27:26;;;;;;;10.20;6.72;;;;;;;18.43;42.04;101897.13;5095341;28;20043;-69
2021/11/17 02:30:10;;;;;;;9.65;6.57;;;;;;;18.42;42.15;101885.75;5096151;28;20036;-69
2021/11/17 02:33:08;;;;;;;10.50;6.90;;;;;;;18.40;42.00;101884.16;5095680;28;20051;-69
2021/11/17 02:35:52;;;;;;;11.65;6.70;;;;;;;18.40;42.20;101881.50;5094124;28;20028;-70
2021/11/17 02:38:33;;;;;;;11.55;6.70;;;;;;;18.39;42.33;101882.44;5095108;28;20030;-70
2021/11/17 02:41:43;;;;;;;9.27;6.40;;;;;;;18.38;42.30;101888.69;5095469;28;20051;-69
2021/11/17 02:44:48;;;;;;;11.20;6.85;;;;;;;18.33;42.31;101873.16;5095290;28;20058;-70
2021/11/17 02:47:20;;;;;;;10.95;7.18;;;;;;;18.37;42.32;101877.25;5095031;28;20047;-70
2021/11/17 02:50:01;;;;;;;11.35;6.65;;;;;;;18.37;42.40;101879.06;5094525;28;20153;-70
2021/11/17 02:53:06;;;;;;;9.68;6.28;;;;;;;18.36;42.17;101885.28;5094677;28;20028;-69
2021/11/17 02:55:37;;;;;;;11.15;7.10;;;;;;;18.38;42.20;101896.59;5093835;28;20046;-69
2021/11/17 02:58:14;;;;;;;9.98;6.25;;;;;;;18.39;42.31;101895.63;5094493;28;20486;-69
2021/11/17 03:01:15;;;;;;;10.90;6.40;;;;;;;18.40;42.03;101903.44;5094103;28;20074;-70
2021/11/17 03:03:50;;;;;;;9.35;5.75;;;;;;;18.42;42.37;101906.00;5106851;28;20020;-70
2021/11/17 03:06:16;;;;;;;9.55;6.25;;;;;;;18.44;42.22;101906.75;5094551;28;20056;-70
2021/11/17 03:09:23;;;;;;;11.23;6.73;;;;;;;18.46;42.21;101908.34;5093391;28;20047;-70
2021/11/17 03:12:04;;;;;;;10.38;6.38;;;;;;;18.48;41.83;101905.59;5093833;28;20073;-70
2021/11/17 03:14:54;;;;;;;9.43;5.93;;;;;;;18.48;42.18;101895.91;5093998;28;20036;-70
2021/11/17 03:17:40;;;;;;;11.15;6.20;;;;;;;18.50;42.05;101895.81;5093430;28;20526;-69
2021/11/17 03:20:28;;;;;;;10.60;6.25;;;;;;;18.49;41.70;101883.53;5093997;28;20539;-68
2021/11/17 03:22:56;;;;;;;10.65;6.35;;;;;;;18.51;41.69;101894.00;5093331;28;20035;-69
2021/11/17 03:25:52;;;;;;;9.98;6.35;;;;;;;18.51;41.78;101908.03;5094022;28;20036;-69
2021/11/17 03:28:59;;;;;;;10.05;6.18;;;;;;;18.51;41.73;101910.66;5093808;28;20049;-69
2021/11/17 03:31:33;;;;;;;9.68;6.05;;;;;;;18.52;41.62;101922.94;5058901;28;20036;-70
2021/11/17 03:34:17;;;;;;;10.82;6.32;;;;;;;18.51;41.66;101920.41;5093985;28;20035;-69
2021/11/17 03:37:11;;;;;;;10.32;6.50;;;;;;;18.52;41.75;101915.00;5092624;28;20071;-69
2021/11/17 03:39:54;;;;;;;10.02;6.10;;;;;;;18.48;41.77;101890.63;5093621;28;20035;-70
2021/11/17 03:42:34;;;;;;;10.68;6.25;;;;;;;18.51;41.58;101886.06;5093653;28;20487;-69
2021/11/17 03:45:13;;;;;;;9.38;5.78;;;;;;;18.51;41.64;101872.88;5092655;28;20074;-70
2021/11/17 03:47:45;;;;;;;11.00;6.40;;;;;;;18.51;41.97;101870.25;5093541;28;20032;-70
2021/11/17 03:50:33;;;;;;;8.52;5.85;;;;;;;18.51;41.84;101868.44;5093488;28;20115;-69
2021/11/17 03:53:05;;;;;;;10.70;6.50;;;;;;;18.52;41.72;101895.66;5092692;28;20028;-70
2021/11/17 03:55:52;;;;;;;9.05;5.95;;;;;;;18.53;41.70;101902.66;5093037;28;20024;-69
2021/11/17 03:58:58;;;;;;;9.57;6.00;;;;;;;18.53;41.68;101897.38;5092683;28;20074;-70
2021/11/17 04:01:37;;;;;;;9.88;5.90;;;;;;;18.54;41.58;101892.00;5093346;28;20126;-70
2021/11/17 04:04:32;;;;;;;9.50;5.97;;;;;;;18.55;41.96;101890.19;5093430;28;20028;-70
2021/11/17 04:07:09;;;;;;;8.60;5.32;;;;;;;18.56;41.68;101876.06;5083271;28;20115;-70
2021/11/17 04:09:53;;;;;;;8.43;5.43;;;;;;;18.56;42.02;101879.53;5092898;28;20036;-69
2021/11/17 04:12:30;;;;;;;8.55;5.38;;;;;;;18.56;41.88;101879.53;5092383;28;20098;-69
2021/11/17 04:15:14;;;;;;;8.68;5.47;;;;;;;18.56;41.75;101890.09;5093114;28;20036;-70
2021/11/17 04:18:18;;;;;;;8.37;5.47;;;;;;;18.56;41.84;101892.72;5093030;28;20051;-69
2021/11/17 04:21:08;;;;;;;9.80;5.85;;;;;;;18.57;41.39;101906.78;5092111;28;20043;-69
2021/11/17 04:24:00;;;;;;;8.95;5.55;;;;;;;18.57;41.55;101901.50;5092710;28;20485;-69
2021/11/17 04:26:47;;;;;;;8.90;5.40;;;;;;;18.57;41.47;101917.34;5092373;28;20439;-69
2021/11/17 04:29:41;;;;;;;9.68;5.47;;;;;;;18.56;41.66;101911.22;5092910;28;20485;-70
2021/11/17 04:32:37;;;;;;;10.18;5.63;;;;;;;18.55;41.64;101909.53;5092896;28;20471;-70
2021/11/17 04:35:44;;;;;;;8.32;5.30;;;;;;;18.55;41.44;101919.22;5091951;28;20050;-70
2021/11/17 04:38:21;;;;;;;9.20;5.68;;;;;;;18.54;41.51;101918.38;5086585;28;20035;-70
2021/11/17 04:41:00;;;;;;;8.80;5.35;;;;;;;18.53;41.48;101924.59;5091564;28;20032;-70
2021/11/17 04:43:34;;;;;;;8.07;5.05;;;;;;;18.53;41.62;101919.31;5092995;28;20055;-70
2021/11/17 04:46:21;;;;;;;8.73;5.53;;;;;;;18.54;41.82;101904.34;5093110;28;20052;-69
2021/11/17 04:49:09;;;;;;;14.63;6.00;;;;;;;18.54;41.85;101899.06;5091694;28;20054;-70
2021/11/17 04:51:37;;;;;;;8.98;5.68;;;;;;;18.55;41.83;101900.75;5092189;28;20078;-69
2021/11/17 04:54:18;;;;;;;8.48;5.45;;;;;;;18.56;41.57;101894.53;5092127;28;20168;-70
2021/11/17 04:56:59;;;;;;;8.95;4.88;;;;;;;18.56;41.82;101883.97;5092319;28;20544;-69
2021/11/17 04:59:30;;;;;;;10.20;5.65;;;;;;;18.55;41.60;101890.19;5092424;28;20060;-69
2021/11/17 05:02:23;;;;;;;9.80;5.85;;;;;;;18.56;41.77;101876.88;5091717;28;20040;-69
2021/11/17 05:05:00;;;;;;;10.52;4.97;;;;;;;18.55;41.74;101875.22;5092276;28;20115;-70
2021/11/17 05:07:47;;;;;;;8.38;5.35;;;;;;;18.56;41.40;101863.69;5092567;28;20036;-70
2021/11/17 05:10:12;;;;;;;8.73;5.45;;;;;;;18.56;41.59;101845.22;5091565;28;20030;-69
2021/11/17 05:12:53;;;;;;;8.97;5.50;;;;;;;18.56;41.62;101829.38;5091849;28;20139;-70
2021/11/17 05:15:43;;;;;;;8.95;5.55;;;;;;;18.57;41.80;101832.88;5091883;28;20070;-70
2021/11/17 05:18:44;;;;;;;9.13;5.22;;;;;;;18.56;41.47;101845.22;5092410;28;20039;-71
2021/11/17 05:21:12;;;;;;;10.95;5.88;;;;;;;18.56;41.57;101863.69;5090846;28;20097;-71
2021/11/17 05:24:25;;;;;;;8.88;5.68;;;;;;;18.55;41.55;101866.44;5091630;28;20383;-71
2021/11/17 05:27:11;;;;;;;8.63;5.25;;;;;;;18.55;41.53;101859.38;5076202;28;20040;-70
2021/11/17 05:29:46;;;;;;;8.68;5.30;;;;;;;18.55;41.68;101861.16;5095446;28;20085;-70
2021/11/17 05:32:14;;;;;;;8.50;4.95;;;;;;;18.53;41.69;101861.25;5096410;28;20123;-70
2021/11/17 05:34:48;;;;;;;9.65;5.72;;;;;;;18.52;41.50;101851.66;5095862;28;20028;-70
2021/11/17 05:37:38;;;;;;;8.90;5.10;;;;;;;18.52;41.84;101854.28;5095318;28;20024;-69
2021/11/17 05:40:25;;;;;;;7.85;4.78;;;;;;;18.51;41.66;101836.75;5096235;28;20116;-69
2021/11/17 05:43:22;;;;;;;8.18;4.97;;;;;;;18.52;42.18;101832.31;5096064;28;20039;-70
2021/11/17 05:46:32;;;;;;;8.93;5.22;;;;;;;18.52;41.99;101845.50;5095735;28;20051;-70
2021/11/17 05:49:00;;;;;;;9.10;5.38;;;;;;;18.54;41.63;101851.56;5095682;28;20077;-71
2021/11/17 05:51:37;;;;;;;9.85;4.90;;;;;;;18.53;41.75;101853.34;5095076;28;20103;-69
2021/11/17 05:54:20;;;;;;;8.55;5.25;;;;;;;18.53;41.52;101852.50;5095739;28;20509;-69
2021/11/17 05:57:04;;;;;;;8.30;4.88;;;;;;;18.54;41.61;101848.91;5095619;28;20386;-69
2021/11/17 05:59:45;;;;;;;7.97;5.13;;;;;;;18.54;41.84;101846.28;5094754;28;20161;-70
2021/11/17 06:02:24;;;;;;;8.48;5.25;;;;;;;18.54;41.86;101851.56;5095512;28;20036;-69
2021/11/17 06:04:50;;;;;;;8.65;4.80;;;;;;;18.53;41.38;101861.25;5094571;28;20043;-69
2021/11/17 06:07:15;;;;;;;8.10;5.20;;;;;;;18.55;41.83;101866.44;5095460;28;20115;-69
2021/11/17 06:09:40;;;;;;;9.00;4.72;;;;;;;18.54;41.95;101862.13;5095288;28;20420;-70
2021/11/17 06:12:12;;;;;;;8.63;5.20;;;;;;;18.56;42.45;101857.56;5094392;28;20093;-69
2021/11/17 06:14:42;;;;;;;9.13;4.90;;;;;;;18.57;43.33;101867.19;5094921;28;20508;-70
2021/11/17 06:17:13;;;;;;;7.75;4.60;;;;;;;18.60;43.65;101872.28;5095124;28;20077;-68
2021/11/17 06:19:42;;;;;;;8.43;4.78;;;;;;;18.60;43.33;101867.81;5094213;28;20024;-69
2021/11/17 06:22:10;;;;;;;7.90;4.90;;;;;;;18.62;42.59;101867.72;5095030;28;20020;-72
2021/11/17 06:24:37;;;;;;;8.70;4.75;;;;;;;18.65;42.55;101863.06;5094792;28;20024;-72
2021/11/17 06:27:06;;;;;;;7.13;4.10;;;;;;;18.69;42.71;101861.06;5094413;28;20032;-71
2021/11/17 06:29:37;;;;;;;7.38;4.20;;;;;;;18.72;43.11;101862.66;5094609;28;20085;-70
2021/11/17 06:32:04;;;;;;;7.88;4.18;;;;;;;18.76;42.86;101870.28;5095514;28;20020;-71
2021/11/17 06:34:31;;;;;;;7.78;4.10;;;;;;;18.79;42.74;101872.72;5094067;28;20119;-71
2021/11/17 06:36:59;;;;;;;7.70;4.18;;;;;;;18.82;42.85;101880.44;5095271;28;20024;-71
2021/11/17 06:39:26;;;;;;;6.60;4.20;;;;;;;18.84;43.09;101880.34;5093498;28;20502;-71
2021/11/17 06:41:52;;;;;;;6.95;3.60;;;;;;;18.88;42.87;101884.47;5094616;28;20043;-71
2021/11/17 06:44:17;;;;;;;6.57;3.92;;;;;;;18.90;42.64;101889.63;5094710;28;20016;-70
2021/11/17 06:46:42;;;;;;;5.82;3.35;;;;;;;18.93;42.90;101897.34;5094046;28;20103;-70
2021/11/17 06:49:08;;;;;;;7.03;3.80;;;;;;;18.94;42.80;101897.25;5094607;28;20024;-70
2021/11/17 06:51:33;;;;;;;6.63;3.50;;;;;;;18.96;42.81;101899.78;5094507;28;20039;-70
2021/11/17 06:53:59;;;;;;;6.72;4.28;;;;;;;18.98;42.97;101895.28;5093931;28;20566;-70
2021/11/17 06:56:24;;;;;;;7.47;3.88;;;;;;;18.99;43.15;101894.31;5094386;28;20046;-70
2021/11/17 06:58:49;;;;;;;5.90;3.65;;;;;;;19.01;42.96;101895.06;5094194;28;20093;-70
2021/11/17 07:01:15;;;;;;;6.03;3.70;;;;;;;19.01;42.72;101901.19;5093734;28;20059;-71
2021/11/17 07:03:40;;;;;;;6.65;3.65;;;;;;;19.04;42.68;101900.09;5094187;28;20277;-70
2021/11/17 07:06:06;;;;;;;6.40;3.58;;;;;;;19.05;43.07;101909.75;5093680;28;20044;-70
2021/11/17 07:08:32;;;;;;;6.65;4.18;;;;;;;19.06;42.89;101895.59;5093331;28;20024;-72
2021/11/17 07:10:58;;;;;;;7.85;3.88;;;;;;;19.07;43.03;101901.72;5094582;28;20043;-68
2021/11/17 07:13:23;;;;;;;7.00;3.90;;;;;;;19.08;43.02;101901.59;5094715;28;20043;-77
2021/11/17 07:15:49;;;;;;;9.07;5.35;;;;;;;19.08;42.16;101904.25;5093681;28;20024;-71
2021/11/17 07:18:15;;;;;;;6.82;4.28;;;;;;;19.08;42.89;101912.16;5094358;28;20030;-76
2021/11/17 07:20:41;;;;;;;7.00;4.22;;;;;;;19.08;43.18;101911.34;5093770;28;20031;-71
2021/11/17 07:23:08;;;;;;;8.15;3.90;;;;;;;19.10;42.92;101915.53;5093737;28;20016;-73
2021/11/17 07:25:34;;;;;;;7.10;3.95;;;;;;;19.12;42.80;101916.31;5093959;28;20390;-73
2021/11/17 07:28:00;;;;;;;6.38;3.85;;;;;;;19.14;43.10;101927.59;5094137;28;20127;-72
2021/11/17 07:30:29;;;;;;;8.75;3.90;;;;;;;19.16;43.07;101927.50;5093336;28;20059;-72
2021/11/17 07:32:55;;;;;;;6.93;3.72;;;;;;;19.17;42.94;101932.69;5094224;28;20024;-72
2021/11/17 07:35:23;;;;;;;6.68;3.72;;;;;;;19.18;43.21;101939.66;5094332;28;20035;-70
2021/11/17 07:37:49;;;;;;;7.22;3.85;;;;;;;19.20;43.33;101937.75;5093426;28;20023;-73
2021/11/17 07:40:15;;;;;;;5.80;3.35;;;;;;;19.21;42.94;101928.84;5094297;28;20444;-72
2021/11/17 07:42:42;;;;;;;6.50;3.88;;;;;;;19.23;43.05;101920.84;5094281;28;20096;-74
2021/11/17 07:45:09;;;;;;;6.68;3.75;;;;;;;19.24;43.31;101933.09;5094115;28;20055;-74
2021/11/17 07:47:36;;;;;;;5.85;3.45;;;;;;;19.25;43.10;101939.22;5024250;28;20055;-73
2021/11/17 07:50:02;;;;;;;5.88;3.53;;;;;;;19.24;43.08;101935.75;5094084;28;20525;-73
2021/11/17 07:52:28;;;;;;;5.97;3.28;;;;;;;19.27;43.13;101932.06;5094509;28;20361;-73
2021/11/17 07:54:54;;;;;;;6.78;3.97;;;;;;;19.27;43.20;101924.13;5094867;28;20021;-73
2021/11/17 07:57:19;;;;;;;7.28;4.10;;;;;;;19.28;43.30;101928.44;5094450;28;20036;-73
2021/11/17 07:59:45;;;;;;;5.85;3.22;;;;;;;19.28;43.01;101921.38;5093950;28;20055;-73
2021/11/17 08:02:14;;;;;;;6.95;3.55;;;;;;;19.29;42.93;101917.75;5094336;28;20084;-74
2021/11/17 08:04:41;;;;;;;7.47;3.80;;;;;;;19.30;42.76;101919.47;5094043;28;20063;-72
2021/11/17 08:07:14;;;;;;;6.45;3.80;;;;;;;19.30;43.13;101922.13;5095067;28;20032;-72
2021/11/17 08:09:41;;;;;;;6.05;3.53;;;;;;;19.32;43.36;101924.66;5094634;28;20040;-73
2021/11/17 08:12:06;;;;;;;7.60;3.45;;;;;;;19.33;43.19;101921.91;5094103;28;20122;-72
2021/11/17 08:14:32;;;;;;;6.53;3.65;;;;;;;19.32;43.27;101914.06;5094853;28;20107;-73
2021/11/17 08:16:57;;;;;;;6.43;3.70;;;;;;;19.34;43.18;101917.44;5095729;28;20024;-73
2021/11/17 08:19:23;;;;;;;5.57;3.35;;;;;;;19.35;43.48;101922.63;5094482;28;20028;-73
2021/11/17 08:21:48;;;;;;;5.60;3.38;;;;;;;19.36;43.35;101926.13;5094933;28;20488;-73
2021/11/17 08:24:13;;;;;;;6.68;3.55;;;;;;;19.36;43.36;101926.97;5095029;28;20399;-72
2021/11/17 08:26:38;;;;;;;6.10;3.47;;;;;;;19.36;43.24;101940.19;5094344;28;20051;-73
2021/11/17 08:29:04;;;;;;;6.55;3.60;;;;;;;19.37;43.02;101951.59;5095405;28;20325;-73
2021/11/17 08:31:29;;;;;;;6.38;4.05;;;;;;;19.37;43.41;101959.53;5094908;28;20020;-73
2021/11/17 08:33:55;;;;;;;8.63;4.05;;;;;;;19.36;43.35;101969.28;5097157;28;20479;-74
2021/11/17 08:36:21;;;;;;;6.22;3.50;;;;;;;19.38;43.14;101959.44;5100505;28;20077;-73
2021/11/17 08:38:50;;;;;;;8.10;4.05;;;;;;;19.37;43.38;101965.66;5097960;28;20031;-73
2021/11/17 08:41:16;;;;;;;5.82;3.58;;;;;;;19.38;43.44;101963.88;5103756;28;20032;-74
2021/11/17 08:43:48;;;;;;;7.75;3.78;;;;;;;19.40;43.33;101975.19;5100925;28;20035;-74
2021/11/17 08:46:13;;;;;;;6.65;3.80;;;;;;;19.38;43.57;101972.66;5097690;28;20467;-74
2021/11/17 08:48:39;;;;;;;6.97;4.07;;;;;;;19.40;43.22;101969.91;5093849;28;20032;-74
2021/11/17 08:51:09;;;;;;;6.72;4.10;;;;;;;19.40;43.26;101967.25;5094880;28;20024;-77
2021/11/17 08:53:36;;;;;;;7.55;3.95;;;;;;;19.40;43.22;101970.72;5093031;28;20028;-79
2021/11/17 08:56:03;;;;;;;7.15;4.18;;;;;;;19.42;43.12;101952.13;5094441;28;20039;-71
2021/11/17 08:58:29;;;;;;;7.35;4.40;;;;;;;19.49;42.82;101960.50;5095187;28;20060;-70
2021/11/17 09:00:54;;;;;;;6.88;4.15;;;;;;;19.56;42.75;101967.88;5093016;28;20052;-69
2021/11/17 09:03:22;;;;;;;6.47;3.65;;;;;;;19.62;42.95;101966.59;5099025;28;20036;-69
2021/11/17 09:05:53;;;;;;;6.72;3.85;;;;;;;19.73;42.34;101973.78;5097591;28;20028;-72
2021/11/17 09:08:23;;;;;;;7.30;4.75;;;;;;;19.79;42.26;101980.47;5097709;28;20039;-73
2021/11/17 09:10:54;;;;;;;7.95;4.90;;;;;;;19.84;42.19;101975.72;5098922;28;20032;-75
2021/11/17 09:13:20;;;;;;;9.77;4.90;;;;;;;19.87;42.15;101967.56;5103784;28;20037;-80
2021/11/17 09:15:50;;;;;;;9.90;5.13;;;;;;;19.92;41.95;101978.66;5101466;28;20387;-80
2021/11/17 09:18:18;;;;;;;9.27;4.88;;;;;;;19.94;42.02;101971.44;5100247;28;20036;-79
2021/11/17 09:20:44;;;;;;;8.70;5.05;;;;;;;19.96;41.85;101985.41;5101594;28;20028;-77
2021/11/17 09:23:11;;;;;;;8.73;5.18;;;;;;;19.98;41.90;101988.81;5097161;28;20372;-77
2021/11/17 09:25:42;;;;;;;11.73;5.28;;;;;;;19.96;42.20;101984.56;5098496;28;20032;-74
2021/11/17 09:28:11;;;;;;;10.65;5.47;;;;;;;19.94;42.08;101985.50;5100683;28;20031;-76
2021/11/17 09:30:39;;;;;;;9.82;5.07;;;;;;;20.01;41.84;101988.59;5096030;28;20032;-76
2021/11/17 09:33:07;;;;;;;10.70;5.70;;;;;;;20.05;41.90;101991.84;5097482;28;20051;-72
2021/11/17 09:36:26;;;;;;;8.60;5.03;;;;;;;20.07;42.00;102001.38;5096524;28;20032;-79
2021/11/17 09:38:54;;;;;;;9.85;5.03;;;;;;;20.07;41.74;101990.78;5098442;28;20028;-71
2021/11/17 09:41:32;;;;;;;8.80;5.38;;;;;;;20.12;41.71;101993.09;5098641;28;20086;-76
2021/11/17 09:44:06;;;;;;;10.50;5.68;;;;;;;20.15;41.62;102003.47;5100606;28;20074;-77
2021/11/17 09:46:32;;;;;;;8.90;5.35;;;;;;;20.16;41.84;102006.97;5098516;28;20028;-75
2021/11/17 09:49:01;;;;;;;12.75;5.57;;;;;;;20.14;41.58;101999.16;5097176;28;20020;-75
2021/11/17 09:51:35;;;;;;;7.97;4.82;;;;;;;20.15;41.77;102007.91;5095868;28;20036;-75
2021/11/17 09:54:10;;;;;;;10.43;5.90;;;;;;;20.15;41.73;102007.91;5098788;28;20082;-73
2021/11/17 09:57:00;;;;;;;10.43;5.47;;;;;;;20.14;41.91;102012.38;5096641;28;20123;-73
2021/11/17 09:59:38;;;;;;;9.75;5.82;;;;;;;20.10;41.71;102009.09;5097039;28;20490;-71
2021/11/17 10:02:10;;;;;;;9.25;4.97;;;;;;;20.08;42.01;102013.66;5095607;28;20107;-67
2021/11/17 10:04:39;;;;;;;8.77;5.15;;;;;;;20.01;42.08;102008.91;5094800;28;20020;-68
2021/11/17 10:13:15;;;;;;;8.25;5.00;;;;;;;19.81;42.61;102016.44;5095726;28;20522;-67
2021/11/17 10:15:45;;;;;;;9.45;5.38;;;;;;;19.77;42.57;102022.91;5095417;28;20035;-66
2021/11/17 10:18:16;;;;;;;9.70;5.43;;;;;;;19.73;42.56;102018.75;5094900;28;20103;-67
2021/11/17 10:20:47;;;;;;;11.45;6.05;;;;;;;19.68;42.69;102019.06;5095142;28;20074;-68
2021/11/17 10:23:52;;;;;;;9.02;5.50;;;;;;;19.63;42.76;102015.91;5095655;28;20441;-67
2021/11/17 10:26:17;;;;;;;9.97;5.67;;;;;;;19.58;43.04;102024.16;5094656;28;20060;-67
2021/11/17 10:28:57;;;;;;;10.45;5.45;;;;;;;19.57;43.23;102022.47;5094932;28;20065;-68
2021/11/17 10:31:31;;;;;;;9.93;5.30;;;;;;;19.55;43.26;102024.38;5095052;28;20028;-68
2021/11/17 10:34:10;;;;;;;10.02;5.57;;;;;;;19.53;43.22;102020.97;5094846;28;20020;-68
2021/11/17 10:36:35;;;;;;;10.52;5.72;;;;;;;19.50;43.07;102015.91;5095092;28;20036;-68
2021/11/17 10:39:10;;;;;;;9.77;5.53;;;;;;;19.49;42.92;102016.03;5094655;28;20046;-68
2021/11/17 10:41:36;;;;;;;10.88;6.05;;;;;;;19.45;43.40;102007.44;5095344;28;20119;-68
2021/11/17 10:44:04;;;;;;;10.80;6.30;;;;;;;19.44;43.10;102013.69;5096366;28;20044;-68
2021/11/17 10:46:52;;;;;;;10.95;6.90;;;;;;;19.43;43.40;102016.44;5094685;28;20028;-69
2021/11/17 10:49:25;;;;;;;10.70;5.93;;;;;;;19.42;43.27;102022.66;5095161;28;20035;-68
2021/11/17 10:52:01;;;;;;;10.95;6.20;;;;;;;19.42;43.27;102022.66;5094553;28;20039;-69
2021/11/17 10:54:29;;;;;;;11.85;6.60;;;;;;;19.41;43.34;102021.81;5094153;28;20434;-67
2021/11/17 10:57:05;;;;;;;10.35;5.95;;;;;;;19.42;43.42;102020.00;5095000;28;20042;-67
2021/11/17 10:59:32;;;;;;;9.48;5.97;;;;;;;19.40;43.26;102025.41;5094560;28;20034;-67
2021/11/17 11:01:58;;;;;;;12.55;5.78;;;;;;;19.40;43.52;102020.97;5094016;28;20031;-69
2021/11/17 11:04:40;;;;;;;10.75;5.95;;;;;;;19.40;43.60;102020.97;5094561;28;20107;-68
2021/11/17 11:07:08;;;;;;;10.32;6.15;;;;;;;19.42;43.71;102033.25;5093940;28;20028;-68
2021/11/17 11:09:58;;;;;;;11.65;6.57;;;;;;;19.42;43.66;102041.16;5094251;28;20040;-68
2021/11/17 11:12:27;;;;;;;12.55;6.80;;;;;;;19.42;43.64;102043.81;5094319;28;20097;-68
2021/11/17 11:14:55;;;;;;;9.90;6.03;;;;;;;19.40;43.63;102047.38;5093671;28;20020;-68
2021/11/17 11:17:39;;;;;;;11.48;6.28;;;;;;;19.40;43.52;102043.91;5094527;28;20020;-67
2021/11/17 11:20:17;;;;;;;11.20;6.13;;;;;;;19.41;43.76;102050.91;5094407;28;20032;-67
2021/11/17 11:23:09;;;;;;;11.88;6.10;;;;;;;19.42;43.96;102052.56;5093125;28;20036;-68
2021/11/17 11:25:58;;;;;;;10.23;5.55;;;;;;;19.40;44.13;102039.47;5093490;28;20142;-69
2021/11/17 11:28:51;;;;;;;9.25;5.38;;;;;;;19.42;44.07;102046.44;5093570;28;20026;-68
2021/11/17 11:31:29;;;;;;;12.43;7.10;;;;;;;19.42;44.26;102044.66;5094429;28;20028;-69
2021/11/17 11:33:54;;;;;;;15.45;7.43;;;;;;;19.40;44.23;102039.47;5094461;28;20024;-69
2021/11/17 11:36:22;;;;;;;11.90;6.47;;;;;;;19.41;44.10;102045.63;5093171;28;20401;-69
2021/11/17 11:38:56;;;;;;;11.75;6.30;;;;;;;19.41;44.01;102042.97;5093814;28;20092;-69
2021/11/17 11:41:27;;;;;;;;;;;;;;;19.40;44.28;102047.38;5094281;28;20031;-68
2021/11/17 11:44:31;;;;;;;11.38;5.97;;;;;;;19.42;44.33;102049.94;5092924;28;20001;-67
2021/11/17 11:46:57;;;;;;;11.15;6.53;;;;;;;19.42;44.27;102035.88;5089630;28;20071;-67
2021/11/17 11:49:52;;;;;;;10.10;6.00;;;;;;;19.40;44.31;102047.38;5092980;28;20427;-69
2021/11/17 11:52:20;;;;;;;10.38;6.28;;;;;;;19.42;44.23;102038.53;5093472;28;20364;-69
2021/11/17 11:54:51;;;;;;;10.68;6.30;;;;;;;19.43;44.13;102040.22;5093166;28;20479;-67
2021/11/17 11:57:35;;;;;;;11.30;5.95;;;;;;;19.44;44.30;102036.59;5092823;28;20024;-68
2021/11/17 12:00:05;;;;;;;12.07;6.32;;;;;;;19.42;44.30;102042.00;5093505;28;20044;-68
2021/11/17 12:02:38;;;;;;;10.90;6.32;;;;;;;19.42;44.39;102044.66;5093309;28;20028;-68
2021/11/17 12:05:10;;;;;;;11.13;6.43;;;;;;;19.42;44.43;102044.66;5093375;28;20050;-68
2021/11/17 12:07:48;;;;;;;12.70;6.78;;;;;;;19.44;44.41;102050.69;5093636;28;20051;-66
2021/11/17 12:10:30;;;;;;;13.00;7.32;;;;;;;19.47;44.50;102049.63;5095206;28;20024;-76
2021/11/17 12:12:55;;;;;;;12.00;6.43;;;;;;;19.51;44.46;102043.19;5094651;28;20044;-79
2021/11/17 12:15:33;;;;;;;10.27;6.00;;;;;;;19.59;44.12;102048.78;5097575;28;20020;-78
2021/11/17 12:18:16;;;;;;;12.07;6.22;;;;;;;19.67;43.81;102051.75;5097697;28;20119;-72
2021/11/17 12:21:01;;;;;;;10.10;5.75;;;;;;;19.75;43.68;102045.94;5100893;28;20028;-75
2021/11/17 12:23:30;;;;;;;9.18;6.03;;;;;;;19.82;43.39;102056.97;5099910;28;20036;-76
2021/11/17 12:25:58;;;;;;;11.65;7.00;;;;;;;19.87;43.49;102058.34;5098319;28;20039;-76
2021/11/17 12:28:25;;;;;;;11.85;7.07;;;;;;;19.91;43.64;102056.31;5095399;28;20455;-76
2021/11/17 12:30:57;;;;;;;14.13;7.18;;;;;;;19.92;43.66;102055.38;5097092;28;20028;-73
2021/11/17 12:33:24;;;;;;;13.25;6.57;;;;;;;19.88;43.86;102049.44;5096062;28;20086;-74
2021/11/17 12:36:13;;;;;;;12.38;6.88;;;;;;;19.83;43.88;102053.38;5094051;28;20033;-73
2021/11/17 12:38:39;;;;;;;10.77;6.70;;;;;;;19.80;44.02;102056.22;5096461;28;20027;-72
2021/11/17 12:41:13;;;;;;;12.35;7.05;;;;;;;19.74;44.01;102047.75;5096171;28;20398;-72
2021/11/17 12:43:42;;;;;;;12.05;7.65;;;;;;;19.69;44.15;102041.94;5096634;28;20437;-72
2021/11/17 12:46:13;;;;;;;14.98;7.25;;;;;;;19.74;44.19;102049.53;5093103;28;20024;-71
2021/11/17 12:48:45;;;;;;;12.30;7.95;;;;;;;19.77;44.15;102046.69;5093286;28;20379;-73
2021/11/17 12:51:25;;;;;;;11.60;6.88;;;;;;;19.75;44.24;102049.41;5093124;28;20412;-72
2021/11/17 12:54:14;;;;;;;10.13;6.75;;;;;;;19.73;44.24;102053.97;5092038;28;20467;-72
2021/11/17 12:56:49;;;;;;;11.70;6.35;;;;;;;19.71;44.19;102055.88;5092752;28;20056;-72
2021/11/17 12:59:28;;;;;;;11.10;6.85;;;;;;;19.69;44.55;102056.94;5092782;28;20115;-71
2021/11/17 13:02:26;;;;;;;11.45;6.88;;;;;;;19.65;44.62;102050.19;5093166;28;20036;-73
2021/11/17 13:05:26;;;;;;;11.02;6.35;;;;;;;19.64;44.51;102054.59;5093295;28;20112;-72
2021/11/17 13:08:00;;;;;;;13.52;7.15;;;;;;;19.64;44.49;102056.41;5092412;28;20028;-73
2021/11/17 13:10:49;;;;;;;13.18;6.35;;;;;;;19.62;44.92;102059.16;5093110;28;20099;-72
2021/11/17 13:13:21;;;;;;;12.35;7.47;;;;;;;19.62;44.48;102067.09;5092862;28;20127;-73
2021/11/17 13:16:06;;;;;;;14.48;7.07;;;;;;;19.61;44.71;102062.75;5092767;28;20780;-73
2021/11/17 13:18:48;;;;;;;11.68;7.05;;;;;;;19.59;44.72;102059.38;5092775;28;20482;-71
2021/11/17 13:21:31;;;;;;;11.25;6.55;;;;;;;19.58;45.01;102055.88;5091959;28;20051;-70
2021/11/17 13:23:59;;;;;;;13.07;6.78;;;;;;;19.58;44.71;102058.53;5092904;28;20035;-73
2021/11/17 13:26:31;;;;;;;11.02;6.95;;;;;;;19.59;44.78;102062.00;5092812;28;20040;-72
2021/11/17 13:29:16;;;;;;;13.25;8.07;;;;;;;19.57;44.69;102054.19;5092311;28;20044;-73
2021/11/17 13:31:44;;;;;;;12.68;6.70;;;;;;;19.60;45.09;102054.91;5092423;28;20387;-71
2021/11/17 13:34:27;;;;;;;12.43;6.78;;;;;;;19.60;44.99;102058.44;5092536;28;20023;-72
2021/11/17 13:36:54;;;;;;;11.13;6.97;;;;;;;19.62;45.28;102051.22;5092596;28;20040;-73
2021/11/17 13:39:23;;;;;;;12.32;7.50;;;;;;;19.65;45.17;102052.81;5093099;28;20028;-70
2021/11/17 13:41:51;;;;;;;13.52;7.65;;;;;;;19.63;45.12;102058.22;5091784;28;20042;-69
2021/11/17 13:44:21;;;;;;;11.77;6.47;;;;;;;19.62;45.23;102061.81;5092565;28;20028;-69
2021/11/17 13:46:58;;;;;;;13.15;6.97;;;;;;;19.62;45.18;102067.09;5092570;28;20051;-70
2021/11/17 13:49:24;;;;;;;11.65;7.10;;;;;;;19.62;45.06;102071.53;5095802;28;20512;-73
2021/11/17 13:51:49;;;;;;;12.55;6.80;;;;;;;19.60;44.97;102070.78;5096688;28;20028;-73
2021/11/17 13:54:14;;;;;;;11.48;6.32;;;;;;;19.60;45.24;102081.34;5097732;28;20434;-71
2021/11/17 13:56:40;;;;;;;10.60;6.40;;;;;;;19.65;44.99;102090.69;5096938;28;20036;-71
2021/11/17 13:59:06;;;;;;;10.68;6.53;;;;;;;19.72;45.24;102088.47;5098366;28;20430;-74
2021/11/17 14:01:31;;;;;;;10.85;6.68;;;;;;;19.80;45.04;102080.88;5097280;28;20471;-68
2021/11/17 14:03:56;;;;;;;13.35;6.65;;;;;;;19.87;44.95;102094.56;5096587;28;20421;-75
2021/11/17 14:06:23;;;;;;;9.63;6.00;;;;;;;19.94;44.72;102101.09;5097879;28;20016;-68
2021/11/17 14:08:50;;;;;;;10.05;6.00;;;;;;;20.00;44.56;102099.84;5097187;28;20169;-67
2021/11/17 14:11:16;;;;;;;11.23;6.00;;;;;;;20.04;44.46;102094.19;5096891;28;20367;-75
2021/11/17 14:13:43;;;;;;;11.75;6.78;;;;;;;20.08;44.16;102093.03;5097526;28;20024;-73
2021/11/17 14:16:10;;;;;;;9.63;6.35;;;;;;;20.09;44.38;102097.38;5097075;28;20032;-73
2021/11/17 14:18:36;;;;;;;10.63;6.13;;;;;;;20.10;44.16;102092.94;5097803;28;20101;-75
2021/11/17 14:21:04;;;;;;;12.25;6.65;;;;;;;20.11;44.15;102089.34;5101091;28;20455;-75
2021/11/17 14:23:29;;;;;;;12.15;6.22;;;;;;;20.11;43.99;102092.00;5098885;28;20036;-72
2021/11/17 14:25:55;;;;;;;9.48;5.43;;;;;;;20.10;44.05;102091.13;5096430;28;20026;-73
2021/11/17 14:28:24;;;;;;;11.05;5.57;;;;;;;20.13;44.28;102092.72;5096896;28;20433;-73
2021/11/17 14:30:58;;;;;;;9.27;5.68;;;;;;;20.13;43.99;102095.38;5098627;28;20040;-73